Tropical Cyclones
[Index]
Main Index Home Page Stock Weather Photos Extreme Storms Discussion Storm News and Storm Chasing Reports Tropical Cyclones / Hurricanes / Typhoons Weather Data and Links Wild Fires / Bushfires Weather Observation Techniques Weather Picture Catalogue Tornado Pictures and Reports Stock Video Footage and DVDs for sale
Season 2012-2013 Tropical Cyclone ZANE Track Map
Season 2012-2013 Summaries: [BoM-AU] [JTWC-AU] [JTWC-SIO] [JTWC-SPAC] [JTWC-SH]
<<- Previous TC | JTWC 2012-2013 Season | Next TC ->>

click for intensity scale information  Lat/long Grid: Show Hide

 Date Labels: Show Hide

Joint Typhoon Warning Centre Cyclone Data

Name: ZANE

26 Apr 2013 12:00 UTC to 02 May 2013 00:00 UTC

    date/time    lat    long     hPa   cat  kts
2013-04-26 12   10.0   154.5    1007         20          
2013-04-26 18   10.3   154.9    1007         20          
2013-04-27 00   10.8   155.0    1007         20          
2013-04-27 06   11.1   155.4    1004         25          
2013-04-27 12   11.4   155.3    1004         25          
2013-04-27 18   11.7   154.9    1004         25          
2013-04-28 00   12.0   154.5    1004         25          
2013-04-28 06   12.3   154.0    1004         25          
2013-04-28 12   12.5   153.8    1004         25          
2013-04-28 18   12.5   153.6    1000         30          
2013-04-29 00   12.5   153.3    1000         30          
2013-04-29 06   12.6   152.7    1000         30          
2013-04-29 12   13.2   152.2    1000         30          
2013-04-29 18   13.5   151.2     996         35          
2013-04-30 00   13.8   150.3     989    1    45          
2013-04-30 06   14.1   149.5     982    2    55          
2013-04-30 06   14.1   149.5     982    2    55          
2013-04-30 12   14.1   148.8     974    2    65          
2013-04-30 12   14.1   148.8     974    2    65          
2013-04-30 18   14.1   148.2     978    2    60          
2013-04-30 18   14.1   148.2     978    2    60          
2013-05-01 00   13.9   147.5     978    2    60          
2013-05-01 00   13.9   147.5     978    2    60          
2013-05-01 06   13.6   146.6     985    1    50          
2013-05-01 12   13.3   145.4     996         35          
2013-05-01 18   12.5   144.4    1004         25          
2013-05-02 00   11.7   143.0    1007         20          
Winds are 1-min average.

Tropical cyclone tracks developed by Michael Bath using data from the Joint Typhoon Warning Centre Best Tracks and Google Maps.


[Australian Severe Weather index] [Copyright Notice] [Email Contacts] [Search This Site] [Privacy Policy]
Document: tropical_cyclone_zane.htm Updated: 28 June 2017